createdAt,value
2023-03-08T00:00:20.678Z,2.75
2023-03-08T00:01:24.893Z,2.25
2023-03-08T00:02:29.086Z,3.00
2023-03-08T00:03:33.734Z,3.50
2023-03-08T00:04:38.161Z,2.25
2023-03-08T00:05:42.238Z,3.25
2023-03-08T00:06:46.585Z,6.00
2023-03-08T00:07:50.878Z,4.50
2023-03-08T00:08:55.672Z,5.75
2023-03-08T00:10:00.784Z,4.25
2023-03-08T00:11:05.293Z,3.50
2023-03-08T00:12:10.010Z,3.50
2023-03-08T00:13:14.379Z,2.00
2023-03-08T00:14:18.322Z,2.50
2023-03-08T00:15:23.060Z,2.00
2023-03-08T00:16:27.785Z,1.75
2023-03-08T00:17:32.278Z,2.00
2023-03-08T00:18:36.640Z,3.00
2023-03-08T00:19:41.745Z,3.50
2023-03-08T00:20:46.137Z,4.00
2023-03-08T00:21:51.198Z,2.75
2023-03-08T00:22:56.286Z,2.50
2023-03-08T00:24:01.208Z,2.50
2023-03-08T00:25:05.910Z,2.25
2023-03-08T00:26:10.853Z,1.75
2023-03-08T00:27:15.451Z,1.75
2023-03-08T00:28:19.886Z,3.00
2023-03-08T00:29:24.664Z,1.75
2023-03-08T00:30:29.198Z,2.00
2023-03-08T00:31:34.884Z,1.50
2023-03-08T00:32:39.855Z,2.50
2023-03-08T00:33:45.006Z,4.00
2023-03-08T00:34:51.920Z,5.00
2023-03-08T00:35:56.053Z,4.25
2023-03-08T00:37:02.321Z,3.75
2023-03-08T00:38:07.348Z,4.75
2023-03-08T00:39:12.164Z,3.50
2023-03-08T00:40:17.184Z,2.50
2023-03-08T00:41:22.428Z,5.00
2023-03-08T00:42:26.639Z,3.50
2023-03-08T00:43:30.940Z,3.67
2023-03-08T00:44:34.730Z,2.75
2023-03-08T00:45:38.737Z,2.00
2023-03-08T00:46:43.951Z,1.75
2023-03-08T00:47:48.689Z,2.00
2023-03-08T00:48:53.082Z,2.00
2023-03-08T00:49:57.605Z,2.00
2023-03-08T00:51:01.949Z,2.00
2023-03-08T00:52:07.961Z,1.50
2023-03-08T00:53:13.806Z,1.50
2023-03-08T00:54:21.989Z,2.00
2023-03-08T00:55:26.417Z,1.50
2023-03-08T00:56:31.562Z,2.50
2023-03-08T00:57:36.259Z,2.50
2023-03-08T00:58:40.495Z,1.50
2023-03-08T00:59:44.588Z,1.75
2023-03-08T01:00:48.567Z,2.00
2023-03-08T01:01:52.672Z,1.50
2023-03-08T01:02:57.227Z,2.50
2023-03-08T01:04:03.468Z,3.25
2023-03-08T01:06:30.282Z,1.00
2023-03-08T01:07:35.319Z,2.00
2023-03-08T01:08:39.814Z,1.50
2023-03-08T01:09:43.627Z,2.00
2023-03-08T01:10:47.845Z,2.50
2023-03-08T01:11:51.882Z,1.50
2023-03-08T01:12:56.547Z,3.50
2023-03-08T01:14:00.978Z,4.00
2023-03-08T01:15:05.276Z,3.50
2023-03-08T01:16:11.155Z,2.00
2023-03-08T01:17:18.708Z,2.00
2023-03-08T01:18:23.724Z,1.50
2023-03-08T01:19:29.666Z,1.50
2023-03-08T01:20:38.702Z,1.50
2023-03-08T01:21:43.414Z,2.50
2023-03-08T01:22:48.029Z,2.00
2023-03-08T01:23:52.634Z,2.00
2023-03-08T01:24:57.350Z,2.50
2023-03-08T01:26:01.775Z,2.25
2023-03-08T01:27:06.677Z,1.50
2023-03-08T01:29:32.811Z,2.00
2023-03-08T01:30:37.320Z,2.50
2023-03-08T01:31:42.157Z,2.00
2023-03-08T01:32:49.436Z,2.50
2023-03-08T01:33:54.178Z,3.25
2023-03-08T01:34:57.932Z,4.50
2023-03-08T01:36:01.662Z,5.00
2023-03-08T01:37:05.548Z,3.00
2023-03-08T01:38:09.406Z,2.00
2023-03-08T01:39:12.843Z,1.50
2023-03-08T01:40:16.522Z,2.50
2023-03-08T01:41:20.219Z,1.75
2023-03-08T01:42:24.098Z,2.00
2023-03-08T01:43:27.853Z,2.00
2023-03-08T01:44:31.666Z,2.00
2023-03-08T01:45:35.385Z,1.50
2023-03-08T01:46:39.083Z,1.00
2023-03-08T01:47:42.730Z,1.00
2023-03-08T01:48:46.503Z,2.00
2023-03-08T01:49:50.279Z,1.75
2023-03-08T01:50:54.062Z,2.00
2023-03-08T01:51:57.701Z,3.00
2023-03-08T01:53:01.749Z,2.50
2023-03-08T01:54:05.451Z,0.50
2023-03-08T01:55:09.189Z,2.00
2023-03-08T01:56:12.927Z,1.50
2023-03-08T01:57:16.661Z,0.50
2023-03-08T01:58:20.372Z,1.75
2023-03-08T01:59:24.045Z,0.50
2023-03-08T02:00:27.657Z,1.00
2023-03-08T02:01:31.443Z,1.00
2023-03-08T02:02:35.161Z,1.00
2023-03-08T02:03:38.562Z,1.33
2023-03-08T02:04:42.084Z,3.00
2023-03-08T02:05:45.586Z,2.00
2023-03-08T02:06:49.118Z,2.50
2023-03-08T02:07:52.685Z,3.50
2023-03-08T02:08:56.495Z,3.00
2023-03-08T02:09:59.881Z,3.50
2023-03-08T02:11:04.462Z,4.50
2023-03-08T02:12:07.996Z,3.50
2023-03-08T02:13:11.696Z,3.00
2023-03-08T02:14:18.443Z,2.75
2023-03-08T02:15:22.139Z,3.50
2023-03-08T02:16:25.876Z,3.50
2023-03-08T02:17:29.915Z,3.50
2023-03-08T02:18:33.747Z,2.75
2023-03-08T02:19:37.439Z,3.50
2023-03-08T02:20:41.135Z,3.50
2023-03-08T02:21:45.000Z,3.50
2023-03-08T02:22:48.727Z,3.00
2023-03-08T02:23:52.618Z,4.00
2023-03-08T02:24:56.345Z,3.75
2023-03-08T02:26:00.105Z,3.75
2023-03-08T02:27:03.821Z,3.50
2023-03-08T02:28:07.754Z,3.50
2023-03-08T02:29:11.443Z,2.75
2023-03-08T02:30:15.076Z,3.00
2023-03-08T02:31:18.572Z,3.50
2023-03-08T02:32:23.557Z,4.00
2023-03-08T02:33:27.266Z,3.75
2023-03-08T02:34:31.022Z,4.00
2023-03-08T02:35:34.782Z,4.00
2023-03-08T02:36:38.457Z,3.50
2023-03-08T02:37:47.802Z,3.50
2023-03-08T02:38:51.545Z,3.00
2023-03-08T02:39:55.226Z,2.25
2023-03-08T02:40:58.853Z,3.00
2023-03-08T02:42:02.637Z,3.00
2023-03-08T02:43:09.033Z,4.00
2023-03-08T02:44:12.751Z,1.75
2023-03-08T02:45:16.450Z,3.00
2023-03-08T02:46:20.067Z,2.50
2023-03-08T02:47:23.490Z,2.50
2023-03-08T02:48:26.972Z,3.25
2023-03-08T02:49:30.621Z,3.00
2023-03-08T02:50:34.055Z,3.50
2023-03-08T02:51:37.504Z,2.00
2023-03-08T02:52:41.008Z,2.00
2023-03-08T02:53:44.424Z,2.75
2023-03-08T02:54:47.912Z,2.50
2023-03-08T02:55:51.471Z,3.75
2023-03-08T02:56:54.849Z,3.75
2023-03-08T02:57:58.313Z,4.00
2023-03-08T02:59:01.753Z,3.00
2023-03-08T03:00:08.413Z,2.75
2023-03-08T03:01:12.203Z,3.25
2023-03-08T03:02:15.809Z,3.25
2023-03-08T03:03:19.549Z,4.25
2023-03-08T03:04:23.224Z,3.00
2023-03-08T03:05:27.014Z,3.50
2023-03-08T03:06:30.935Z,2.75
2023-03-08T03:07:34.831Z,2.50
2023-03-08T03:08:38.627Z,3.00
2023-03-08T03:09:42.698Z,2.75
2023-03-08T03:10:46.470Z,3.00
2023-03-08T03:11:50.111Z,3.00
2023-03-08T03:12:54.034Z,3.25
2023-03-08T03:13:57.795Z,3.00
2023-03-08T03:15:01.656Z,2.50
2023-03-08T03:16:05.566Z,3.00
2023-03-08T03:17:09.236Z,3.00
2023-03-08T03:18:12.889Z,2.50
2023-03-08T03:19:21.405Z,3.50
2023-03-08T03:20:25.084Z,3.25
2023-03-08T03:21:28.887Z,3.50
2023-03-08T03:22:32.769Z,2.00
2023-03-08T03:23:36.483Z,2.50
2023-03-08T03:24:43.719Z,2.50
2023-03-08T03:25:47.550Z,2.50
2023-03-08T03:26:51.344Z,3.50
2023-03-08T03:27:55.177Z,3.00
2023-03-08T03:28:58.894Z,2.75
2023-03-08T03:30:02.270Z,3.00
2023-03-08T03:31:05.963Z,3.25
2023-03-08T03:32:09.554Z,3.00
2023-03-08T03:33:13.022Z,3.00
2023-03-08T03:34:16.754Z,2.75
2023-03-08T03:35:20.391Z,2.50
2023-03-08T03:36:23.890Z,2.50
2023-03-08T03:37:27.501Z,2.40
2023-03-08T03:38:31.042Z,2.50
2023-03-08T03:39:37.056Z,2.50
2023-03-08T03:40:40.580Z,2.00
2023-03-08T03:41:43.976Z,1.50
2023-03-08T03:42:47.559Z,2.00
2023-03-08T03:43:50.959Z,1.50
2023-03-08T03:44:54.530Z,1.50
2023-03-08T03:45:58.109Z,2.50
2023-03-08T03:47:01.696Z,2.50
2023-03-08T03:48:05.380Z,2.50
2023-03-08T03:49:09.200Z,2.75
2023-03-08T03:50:12.874Z,2.00
2023-03-08T03:51:16.606Z,2.00
2023-03-08T03:52:20.410Z,1.75
2023-03-08T03:53:23.995Z,2.50
2023-03-08T03:54:27.711Z,2.50
2023-03-08T03:55:31.647Z,3.00
2023-03-08T03:56:35.492Z,1.00
2023-03-08T03:57:39.315Z,2.00
2023-03-08T03:58:43.155Z,2.50
2023-03-08T03:59:46.872Z,2.00
2023-03-08T04:00:50.573Z,2.00
2023-03-08T04:01:54.388Z,2.00
2023-03-08T04:02:58.144Z,2.50
2023-03-08T04:04:02.028Z,2.00
2023-03-08T04:05:06.035Z,1.00
2023-03-08T04:06:09.794Z,1.50
2023-03-08T04:07:13.513Z,2.50
2023-03-08T04:08:17.203Z,2.50
2023-03-08T04:09:20.927Z,2.00
2023-03-08T04:10:24.649Z,2.00
2023-03-08T04:11:28.459Z,1.75
2023-03-08T04:12:32.242Z,1.00
2023-03-08T04:13:35.952Z,1.75
2023-03-08T04:14:39.678Z,2.00
2023-03-08T04:15:43.649Z,2.25
2023-03-08T04:16:47.517Z,2.25
2023-03-08T04:17:51.245Z,2.00
2023-03-08T04:18:54.852Z,2.00
2023-03-08T04:19:58.662Z,2.50
2023-03-08T04:21:02.460Z,2.00
2023-03-08T04:22:06.153Z,2.00
2023-03-08T04:23:09.877Z,2.00
2023-03-08T04:24:13.583Z,1.50
2023-03-08T04:25:17.303Z,0.75
2023-03-08T04:26:21.117Z,1.50
2023-03-08T04:27:24.772Z,1.75
2023-03-08T04:28:28.872Z,2.00
2023-03-08T04:29:33.638Z,2.00
2023-03-08T04:30:37.069Z,1.33
2023-03-08T04:31:40.547Z,2.50
2023-03-08T04:32:44.290Z,2.25
2023-03-08T04:33:47.900Z,1.25
2023-03-08T04:34:51.485Z,0.50
2023-03-08T04:35:54.928Z,1.00
2023-03-08T04:36:58.437Z,2.00
2023-03-08T04:38:01.886Z,1.50
2023-03-08T04:39:05.436Z,0.50
2023-03-08T04:40:09.253Z,1.25
2023-03-08T04:41:12.768Z,0.25
2023-03-08T04:42:16.539Z,1.50
2023-03-08T04:43:21.307Z,2.50
2023-03-08T04:44:25.090Z,2.00
2023-03-08T04:45:28.923Z,1.50
2023-03-08T04:46:33.020Z,1.50
2023-03-08T04:47:41.988Z,1.00
2023-03-08T04:48:45.381Z,1.25
2023-03-08T04:49:48.965Z,1.50
2023-03-08T04:50:52.456Z,1.00
2023-03-08T04:51:56.211Z,0.75
2023-03-08T04:52:59.741Z,1.25
2023-03-08T04:54:03.370Z,1.00
2023-03-08T04:55:07.175Z,1.00
2023-03-08T04:56:10.771Z,2.00
2023-03-08T04:57:14.380Z,1.50
2023-03-08T04:58:17.843Z,1.75
2023-03-08T04:59:21.256Z,2.00
2023-03-08T05:00:24.676Z,1.50
2023-03-08T05:01:28.229Z,2.00
2023-03-08T05:02:33.421Z,2.00
2023-03-08T05:03:36.526Z,2.00
2023-03-08T05:04:39.867Z,1.50
2023-03-08T05:05:43.281Z,0.75
2023-03-08T05:06:46.665Z,1.25
2023-03-08T05:07:50.272Z,2.25
2023-03-08T05:08:53.671Z,2.00
2023-03-08T05:09:57.225Z,1.50
2023-03-08T05:11:05.236Z,1.00
2023-03-08T05:12:08.717Z,1.00
2023-03-08T05:13:12.445Z,1.00
2023-03-08T05:14:16.070Z,2.00
2023-03-08T05:15:19.507Z,1.50
2023-03-08T05:16:23.176Z,2.00
2023-03-08T05:17:26.829Z,2.00
2023-03-08T05:18:30.332Z,2.00
2023-03-08T05:19:33.839Z,1.50
2023-03-08T05:20:37.376Z,0.25
2023-03-08T05:21:41.031Z,1.50
2023-03-08T05:22:58.292Z,1.75
2023-03-08T05:23:50.666Z,1.50
2023-03-08T05:24:54.765Z,0.50
2023-03-08T05:26:00.407Z,1.50
2023-03-08T05:27:03.935Z,2.00
2023-03-08T05:28:09.073Z,2.00
2023-03-08T05:29:20.845Z,1.50
2023-03-08T05:30:24.610Z,2.00
2023-03-08T05:31:28.797Z,1.00
2023-03-08T05:32:32.794Z,1.00
2023-03-08T05:33:36.643Z,0.75
2023-03-08T05:34:45.055Z,1.00
2023-03-08T05:35:48.939Z,1.50
2023-03-08T05:36:52.734Z,2.00
2023-03-08T05:39:21.652Z,1.00
2023-03-08T05:40:25.447Z,2.00
2023-03-08T05:41:29.019Z,1.00
2023-03-08T05:42:32.540Z,1.50
2023-03-08T05:43:36.073Z,1.00
2023-03-08T05:44:43.350Z,2.00
2023-03-08T05:45:49.192Z,1.75
2023-03-08T05:46:52.933Z,2.00
2023-03-08T05:48:01.225Z,1.50
2023-03-08T05:49:05.238Z,1.25
2023-03-08T05:50:09.189Z,1.00
2023-03-08T05:51:18.036Z,1.50
2023-03-08T05:52:21.981Z,1.00
2023-03-08T05:53:25.572Z,1.50
2023-03-08T05:54:38.687Z,1.50
2023-03-08T05:59:07.996Z,2.00
2023-03-08T06:00:12.505Z,1.75
2023-03-08T06:01:17.029Z,1.50
2023-03-08T06:02:33.822Z,3.00
2023-03-08T06:03:41.461Z,2.50
2023-03-08T06:04:45.714Z,1.00
2023-03-08T06:06:00.548Z,1.00
2023-03-08T06:07:05.390Z,1.50
2023-03-08T06:08:18.994Z,1.00
2023-03-08T06:09:28.533Z,1.00
2023-03-08T06:10:41.345Z,2.00
2023-03-08T06:11:57.430Z,1.00
2023-03-08T06:13:01.516Z,1.50
2023-03-08T06:14:08.030Z,2.25
2023-03-08T06:15:12.607Z,1.00
2023-03-08T06:19:15.087Z,0.50
2023-03-08T06:20:21.169Z,1.50
2023-03-08T06:29:46.994Z,1.00
2023-03-08T06:30:54.641Z,1.50
2023-03-08T06:32:13.979Z,1.50
2023-03-08T06:33:34.046Z,1.50
2023-03-08T06:34:37.911Z,1.00
2023-03-08T06:35:49.388Z,1.25
2023-03-08T06:45:03.668Z,1.50
2023-03-08T06:46:07.559Z,0.50
2023-03-08T06:55:20.987Z,1.50
2023-03-08T06:56:29.726Z,2.75
2023-03-08T06:57:34.937Z,1.00
2023-03-08T06:58:38.229Z,2.00
2023-03-08T07:01:22.087Z,1.50
2023-03-08T07:02:28.197Z,1.00
2023-03-08T07:08:57.194Z,1.00
2023-03-08T07:10:01.078Z,2.00
2023-03-08T07:11:09.307Z,2.00
2023-03-08T07:12:19.521Z,1.00
2023-03-08T07:13:24.241Z,1.50
2023-03-08T07:22:41.684Z,1.25
2023-03-08T07:23:45.319Z,1.00
2023-03-08T07:24:49.690Z,1.00
2023-03-08T07:25:55.204Z,1.00
2023-03-08T07:28:20.350Z,1.50
2023-03-08T07:31:03.106Z,1.00
2023-03-08T07:32:07.640Z,0.75
2023-03-08T07:34:34.470Z,0.50
2023-03-08T07:37:08.520Z,1.50
2023-03-08T07:39:40.465Z,0.00
2023-03-08T07:40:48.212Z,1.50
2023-03-08T07:41:52.681Z,2.00
2023-03-08T07:43:00.795Z,1.50
2023-03-08T07:44:18.638Z,1.00
2023-03-08T07:45:25.879Z,1.00
2023-03-08T07:46:37.069Z,2.00
2023-03-08T07:47:42.347Z,1.00
2023-03-08T07:49:01.408Z,1.00
2023-03-08T07:50:06.768Z,1.00
2023-03-08T07:52:34.823Z,1.50
2023-03-08T07:53:39.735Z,1.00
2023-03-08T07:54:44.142Z,1.50
2023-03-08T07:55:57.285Z,2.00
2023-03-08T07:57:06.900Z,1.25
2023-03-08T07:58:11.516Z,2.25
2023-03-08T07:59:28.769Z,2.00
2023-03-08T08:00:33.548Z,1.00
2023-03-08T08:01:38.670Z,1.25
2023-03-08T08:02:42.912Z,2.00
2023-03-08T08:03:47.578Z,1.25
2023-03-08T08:04:51.749Z,1.00
2023-03-08T08:06:01.335Z,1.00
2023-03-08T08:07:05.624Z,2.50
2023-03-08T08:08:13.228Z,2.50
2023-03-08T08:09:17.636Z,1.75
2023-03-08T08:10:23.781Z,1.00
2023-03-08T08:11:34.556Z,2.00
2023-03-08T08:12:42.973Z,2.00
2023-03-08T08:13:49.009Z,2.50
2023-03-08T08:14:53.260Z,2.00
2023-03-08T08:16:02.094Z,2.00
2023-03-08T08:17:18.016Z,1.25
2023-03-08T08:18:23.490Z,1.50
2023-03-08T08:19:28.071Z,2.00
2023-03-08T08:20:32.984Z,3.00
2023-03-08T08:21:40.234Z,1.50
2023-03-08T08:22:45.575Z,1.50
2023-03-08T08:23:50.428Z,2.50
2023-03-08T08:24:54.760Z,1.75
2023-03-08T08:25:59.229Z,1.75
2023-03-08T08:27:04.594Z,2.00
2023-03-08T08:28:09.577Z,2.00
2023-03-08T08:29:13.990Z,1.50
2023-03-08T08:30:18.505Z,2.00
2023-03-08T08:31:23.859Z,1.50
2023-03-08T08:32:29.056Z,1.50
2023-03-08T08:33:33.678Z,1.00
2023-03-08T08:34:41.257Z,1.50
2023-03-08T08:35:45.206Z,1.00
2023-03-08T08:36:53.324Z,1.50
2023-03-08T08:38:09.808Z,2.00
2023-03-08T08:39:16.624Z,0.75
2023-03-08T08:40:22.871Z,0.00
2023-03-08T08:41:27.495Z,1.00
2023-03-08T08:42:32.626Z,1.25
2023-03-08T08:43:41.143Z,2.50
2023-03-08T08:44:46.464Z,2.75
2023-03-08T08:45:51.119Z,3.75
2023-03-08T08:47:03.885Z,3.50
2023-03-08T08:48:08.109Z,3.00
2023-03-08T08:49:16.924Z,2.50
2023-03-08T08:50:22.662Z,3.50
2023-03-08T08:51:27.286Z,2.00
2023-03-08T08:52:35.803Z,2.00
2023-03-08T08:53:40.703Z,2.00
2023-03-08T08:54:45.507Z,2.25
2023-03-08T08:55:50.547Z,2.00
2023-03-08T08:56:54.734Z,2.00
2023-03-08T08:57:59.967Z,2.75
2023-03-08T08:59:13.126Z,2.50
2023-03-08T09:00:25.522Z,1.00
2023-03-08T09:01:29.751Z,2.50
2023-03-08T09:02:35.558Z,2.50
2023-03-08T09:03:44.606Z,2.50
2023-03-08T09:06:11.528Z,2.75
2023-03-08T09:07:25.347Z,3.50
2023-03-08T09:08:30.760Z,3.25
2023-03-08T09:09:35.320Z,3.00
2023-03-08T09:10:41.722Z,3.50
2023-03-08T09:11:54.739Z,2.50
2023-03-08T09:12:50.886Z,2.50
2023-03-08T09:13:55.947Z,2.00
2023-03-08T09:15:00.300Z,2.50
2023-03-08T09:16:04.705Z,2.00
2023-03-08T09:17:09.450Z,2.00
2023-03-08T09:18:16.332Z,2.00
2023-03-08T09:19:20.479Z,2.00
2023-03-08T09:20:24.986Z,1.25
2023-03-08T09:21:29.561Z,1.00
2023-03-08T09:22:34.786Z,1.50
2023-03-08T09:23:39.485Z,2.50
2023-03-08T09:24:46.076Z,3.75
2023-03-08T09:25:50.353Z,5.00
2023-03-08T09:26:58.899Z,3.75
2023-03-08T09:28:14.616Z,3.50
2023-03-08T09:30:40.793Z,2.25
2023-03-08T09:31:48.411Z,2.50
2023-03-08T09:32:52.835Z,3.25
2023-03-08T09:33:57.841Z,2.50
2023-03-08T09:36:31.624Z,4.25
2023-03-08T09:37:35.556Z,3.00
2023-03-08T09:38:42.489Z,3.00
2023-03-08T09:39:47.972Z,3.25
2023-03-08T09:40:52.020Z,3.00
2023-03-08T09:41:56.035Z,2.00
2023-03-08T09:43:07.195Z,3.00
2023-03-08T09:44:11.379Z,4.25
2023-03-08T09:45:29.619Z,4.00
2023-03-08T09:46:33.848Z,4.50
2023-03-08T09:47:38.072Z,4.75
2023-03-08T09:48:42.654Z,5.00
2023-03-08T09:49:46.845Z,4.25
2023-03-08T09:50:50.843Z,5.00
2023-03-08T09:52:01.398Z,5.50
2023-03-08T09:53:11.909Z,2.75
2023-03-08T09:54:17.395Z,3.50
2023-03-08T09:55:23.619Z,5.50
2023-03-08T09:56:27.247Z,4.00
2023-03-08T09:57:32.423Z,3.00
2023-03-08T09:58:37.106Z,2.75
2023-03-08T09:59:43.126Z,3.00
2023-03-08T10:00:47.874Z,2.50
2023-03-08T10:01:59.388Z,2.25
2023-03-08T10:03:03.852Z,2.50
2023-03-08T10:04:08.188Z,2.50
2023-03-08T10:05:17.250Z,2.75
2023-03-08T10:06:21.331Z,1.25
2023-03-08T10:07:27.028Z,2.50
2023-03-08T10:08:30.852Z,3.00
2023-03-08T10:09:35.929Z,2.00
2023-03-08T10:10:44.640Z,1.50
2023-03-08T10:11:52.086Z,1.25
2023-03-08T10:12:56.228Z,1.50
2023-03-08T10:14:05.054Z,2.00
2023-03-08T10:15:22.977Z,1.50
2023-03-08T10:16:28.035Z,2.25
2023-03-08T10:17:34.985Z,2.00
2023-03-08T10:18:50.219Z,2.50
2023-03-08T10:20:01.848Z,2.50
2023-03-08T10:21:07.639Z,1.50
2023-03-08T10:22:13.976Z,2.25
2023-03-08T10:23:23.949Z,3.00
2023-03-08T10:24:38.768Z,3.00
2023-03-08T10:25:45.681Z,2.50
2023-03-08T10:26:50.108Z,1.00
2023-03-08T10:27:54.695Z,1.50
2023-03-08T10:28:58.903Z,2.25
2023-03-08T10:30:03.261Z,2.00
2023-03-08T10:31:20.524Z,1.75
2023-03-08T10:32:24.988Z,2.00
2023-03-08T10:33:33.764Z,2.00
2023-03-08T10:34:47.245Z,2.50
2023-03-08T10:35:51.299Z,2.00
2023-03-08T10:36:58.055Z,1.50
2023-03-08T10:38:04.368Z,2.00
2023-03-08T10:39:08.421Z,2.50
2023-03-08T10:40:12.734Z,3.00
2023-03-08T10:41:17.836Z,1.50
2023-03-08T10:42:22.415Z,2.00
2023-03-08T10:43:42.235Z,2.25
2023-03-08T10:44:49.199Z,1.50
2023-03-08T10:45:58.758Z,2.00
2023-03-08T10:47:03.386Z,2.25
2023-03-08T10:48:08.168Z,1.50
2023-03-08T10:49:15.339Z,1.50
2023-03-08T10:50:20.404Z,1.50
2023-03-08T10:51:30.223Z,3.00
2023-03-08T10:52:36.832Z,2.75
2023-03-08T10:53:41.585Z,3.00
2023-03-08T10:54:46.301Z,1.50
2023-03-08T10:55:50.575Z,1.50
2023-03-08T10:56:55.629Z,1.50
2023-03-08T10:58:00.678Z,2.25
2023-03-08T10:59:05.021Z,1.50
2023-03-08T11:00:13.491Z,2.25
2023-03-08T11:01:17.579Z,2.50
2023-03-08T11:02:27.819Z,2.00
2023-03-08T11:03:33.169Z,1.50
2023-03-08T11:06:19.620Z,2.25
2023-03-08T11:07:24.096Z,2.75
2023-03-08T11:08:28.822Z,2.75
2023-03-08T11:09:33.720Z,3.00
2023-03-08T11:10:45.149Z,2.75
2023-03-08T11:11:49.294Z,2.00
2023-03-08T11:12:53.720Z,2.25
2023-03-08T11:15:19.151Z,3.00
2023-03-08T11:16:23.818Z,3.00
2023-03-08T11:17:28.268Z,3.00
2023-03-08T11:18:32.463Z,3.00
2023-03-08T11:19:36.888Z,3.50
2023-03-08T11:20:43.536Z,3.00
2023-03-08T11:21:49.886Z,3.75
2023-03-08T11:22:55.568Z,4.00
2023-03-08T11:24:00.183Z,3.00
2023-03-08T11:25:04.574Z,3.00
2023-03-08T11:26:08.551Z,2.50
2023-03-08T11:27:12.832Z,2.75
2023-03-08T11:28:20.793Z,4.00
2023-03-08T11:29:24.960Z,3.00
2023-03-08T11:30:29.879Z,3.00
2023-03-08T11:31:33.799Z,2.50
2023-03-08T11:32:38.709Z,2.00
2023-03-08T11:33:42.800Z,1.75
2023-03-08T11:34:46.716Z,3.50
2023-03-08T11:35:51.078Z,3.75
2023-03-08T11:37:02.695Z,3.00
2023-03-08T11:38:06.892Z,3.00
2023-03-08T11:39:11.090Z,3.50
2023-03-08T11:40:15.717Z,3.50
2023-03-08T11:41:20.015Z,2.50
2023-03-08T11:42:24.230Z,2.00
2023-03-08T11:43:28.842Z,4.50
2023-03-08T11:44:34.890Z,5.00
2023-03-08T11:45:39.194Z,4.25
2023-03-08T11:46:43.474Z,2.50
2023-03-08T11:47:47.510Z,2.00
2023-03-08T11:48:52.160Z,2.50
2023-03-08T11:49:56.878Z,3.00
2023-03-08T11:51:04.737Z,2.50
2023-03-08T11:52:08.778Z,1.50
2023-03-08T11:53:13.482Z,0.50
2023-03-08T11:54:20.845Z,2.00
2023-03-08T11:55:26.379Z,1.00
2023-03-08T11:56:31.198Z,0.50
2023-03-08T11:57:36.645Z,2.25
2023-03-08T11:58:40.727Z,2.00
2023-03-08T11:59:44.946Z,1.00
2023-03-08T12:00:49.653Z,0.75
2023-03-08T12:01:53.950Z,1.00
2023-03-08T12:02:58.623Z,0.50
2023-03-08T12:04:04.249Z,2.00
2023-03-08T12:05:10.691Z,0.75
2023-03-08T12:06:27.996Z,0.50
2023-03-08T12:07:20.311Z,0.00
2023-03-08T12:08:34.629Z,0.25
2023-03-08T12:11:15.542Z,0.00
2023-03-08T12:12:21.497Z,0.50
2023-03-08T12:13:27.011Z,0.25
2023-03-08T12:14:31.214Z,0.00
2023-03-08T12:15:35.804Z,1.00
2023-03-08T12:16:40.880Z,0.00
2023-03-08T12:17:45.985Z,0.00
2023-03-08T12:18:50.186Z,0.50
2023-03-08T12:19:54.730Z,1.00
2023-03-08T12:21:04.503Z,1.00
2023-03-08T12:22:08.786Z,1.00
2023-03-08T12:23:12.948Z,1.00
2023-03-08T12:24:17.442Z,0.50
2023-03-08T12:25:22.206Z,0.50
2023-03-08T12:26:26.267Z,1.50
2023-03-08T12:27:30.733Z,2.50
2023-03-08T12:28:35.045Z,1.50
2023-03-08T12:29:39.427Z,0.50
2023-03-08T12:30:44.348Z,1.25
2023-03-08T12:31:48.741Z,1.50
2023-03-08T12:32:53.237Z,1.50
2023-03-08T12:33:57.998Z,2.00
2023-03-08T12:35:02.705Z,0.75
2023-03-08T12:36:07.341Z,1.00
2023-03-08T12:37:11.877Z,1.00
2023-03-08T12:38:16.734Z,1.50
2023-03-08T12:39:21.098Z,1.50
2023-03-08T12:40:25.892Z,1.50
2023-03-08T12:41:30.251Z,1.00
2023-03-08T12:42:34.701Z,0.75
2023-03-08T12:43:39.055Z,1.00
2023-03-08T12:44:43.766Z,1.00
2023-03-08T12:45:48.288Z,0.75
2023-03-08T12:47:02.405Z,0.50
2023-03-08T12:47:58.318Z,0.00
2023-03-08T12:49:03.152Z,0.50
2023-03-08T12:50:08.136Z,1.00
2023-03-08T12:51:12.964Z,0.50
2023-03-08T12:52:17.422Z,1.00
2023-03-08T12:53:21.983Z,1.00
2023-03-08T12:54:26.580Z,1.25
2023-03-08T12:55:31.317Z,0.50
2023-03-08T12:56:35.732Z,0.50
2023-03-08T12:57:40.224Z,1.00
2023-03-08T12:58:44.370Z,0.50
2023-03-08T12:59:48.760Z,0.00
2023-03-08T13:00:57.619Z,1.00
2023-03-08T13:02:02.097Z,1.00
2023-03-08T13:03:06.299Z,1.00
2023-03-08T13:04:10.627Z,0.50
2023-03-08T13:05:14.587Z,1.00
2023-03-08T13:06:18.919Z,0.50
2023-03-08T13:07:22.858Z,1.25
2023-03-08T13:08:27.955Z,3.00
2023-03-08T13:09:31.976Z,2.00
2023-03-08T13:10:35.695Z,0.50
2023-03-08T13:11:40.269Z,1.00
2023-03-08T13:12:44.186Z,0.50
2023-03-08T13:13:49.812Z,0.00
2023-03-08T13:14:54.617Z,1.00
2023-03-08T13:15:59.216Z,0.50
2023-03-08T13:17:03.670Z,0.75
2023-03-08T13:18:07.836Z,1.00
2023-03-08T13:19:12.100Z,1.00
2023-03-08T13:20:16.419Z,1.50
2023-03-08T13:21:21.030Z,1.50
2023-03-08T13:22:26.011Z,0.75
2023-03-08T13:23:30.252Z,1.00
2023-03-08T13:24:34.711Z,0.50
2023-03-08T13:25:39.224Z,0.75
2023-03-08T13:26:50.291Z,0.50
2023-03-08T13:27:49.020Z,0.50
2023-03-08T13:28:53.649Z,1.00
2023-03-08T13:29:57.790Z,1.50
2023-03-08T13:31:02.590Z,0.50
2023-03-08T13:32:06.643Z,0.50
2023-03-08T13:33:11.015Z,1.00
2023-03-08T13:34:15.359Z,1.00
2023-03-08T13:35:19.844Z,0.75
2023-03-08T13:36:24.395Z,1.00
2023-03-08T13:37:28.795Z,1.75
2023-03-08T13:38:33.077Z,0.75
2023-03-08T13:39:37.284Z,0.50
2023-03-08T13:40:41.294Z,0.50
2023-03-08T13:41:46.096Z,0.50
2023-03-08T13:42:50.516Z,1.00
2023-03-08T13:43:55.228Z,1.00
2023-03-08T13:44:59.416Z,1.00
2023-03-08T13:46:04.019Z,0.75
2023-03-08T13:47:08.780Z,1.00
2023-03-08T13:48:13.590Z,0.75
2023-03-08T13:49:18.032Z,1.00
2023-03-08T13:50:23.740Z,1.00
2023-03-08T13:51:28.526Z,1.50
2023-03-08T13:52:32.669Z,1.50
2023-03-08T13:53:37.319Z,2.00
2023-03-08T13:54:41.425Z,2.50
2023-03-08T13:55:45.930Z,2.25
2023-03-08T13:56:50.198Z,3.00
2023-03-08T13:57:54.604Z,3.00
2023-03-08T13:58:59.208Z,3.00
2023-03-08T14:00:03.874Z,2.00
2023-03-08T14:01:08.606Z,2.50
2023-03-08T14:02:12.991Z,2.25
2023-03-08T14:03:18.026Z,1.00
2023-03-08T14:04:22.157Z,1.00
2023-03-08T14:05:26.209Z,1.50
2023-03-08T14:06:34.089Z,2.00
2023-03-08T14:07:38.093Z,1.00
2023-03-08T14:08:42.617Z,1.00
2023-03-08T14:09:47.025Z,1.00
2023-03-08T14:10:52.267Z,1.50
2023-03-08T14:11:56.560Z,1.50
2023-03-08T14:13:00.865Z,1.50
2023-03-08T14:14:05.399Z,2.00
2023-03-08T14:15:09.719Z,1.00
2023-03-08T14:16:14.131Z,2.50
2023-03-08T14:17:18.309Z,3.50
2023-03-08T14:18:22.803Z,2.00
2023-03-08T14:19:26.842Z,1.50
2023-03-08T14:20:31.135Z,1.25
2023-03-08T14:21:35.137Z,1.50
2023-03-08T14:22:40.233Z,1.50
2023-03-08T14:23:44.501Z,1.00
2023-03-08T14:24:48.813Z,2.00
2023-03-08T14:25:53.075Z,1.00
2023-03-08T14:26:57.776Z,1.25
2023-03-08T14:28:02.153Z,0.00
2023-03-08T14:29:06.408Z,1.00
2023-03-08T14:30:10.660Z,0.50
2023-03-08T14:31:14.931Z,1.00
2023-03-08T14:32:19.481Z,1.00
2023-03-08T14:33:30.643Z,1.50
2023-03-08T14:34:28.884Z,0.50
2023-03-08T14:35:33.240Z,1.00
2023-03-08T14:36:37.741Z,1.00
2023-03-08T14:37:42.396Z,0.50
2023-03-08T14:38:47.136Z,0.00
2023-03-08T14:39:51.952Z,0.75
2023-03-08T14:40:56.585Z,1.00
2023-03-08T14:42:00.789Z,0.75
2023-03-08T14:43:05.488Z,1.00
2023-03-08T14:44:09.701Z,1.00
2023-03-08T14:45:13.913Z,0.00
2023-03-08T14:46:18.766Z,0.00
2023-03-08T14:47:22.942Z,0.50
2023-03-08T14:48:27.659Z,0.00
2023-03-08T14:49:32.174Z,0.00
2023-03-08T14:50:36.880Z,0.50
2023-03-08T14:51:41.097Z,0.50
2023-03-08T14:52:46.394Z,0.00
2023-03-08T14:53:50.317Z,0.00
2023-03-08T14:54:54.442Z,0.50
2023-03-08T14:55:58.872Z,0.50
2023-03-08T14:57:02.751Z,0.00
2023-03-08T14:58:06.589Z,0.00
2023-03-08T14:59:25.251Z,0.00
2023-03-08T15:00:18.527Z,0.00
2023-03-08T15:01:22.178Z,0.00
2023-03-08T15:02:25.801Z,0.50
2023-03-08T15:03:29.553Z,0.25
2023-03-08T15:04:34.345Z,0.25
2023-03-08T15:05:38.229Z,0.50
2023-03-08T15:06:42.909Z,1.00
2023-03-08T15:07:46.964Z,0.50
2023-03-08T15:08:55.785Z,0.50
2023-03-08T15:10:00.696Z,1.00
2023-03-08T15:11:05.241Z,1.00
2023-03-08T15:12:09.622Z,1.00
2023-03-08T15:13:13.797Z,0.00
2023-03-08T15:14:18.228Z,1.00
2023-03-08T15:15:22.940Z,0.00
2023-03-08T15:16:27.652Z,0.50
2023-03-08T15:17:37.859Z,0.00
2023-03-08T15:18:43.328Z,0.00
2023-03-08T15:19:47.836Z,1.00
2023-03-08T15:20:52.799Z,0.75
2023-03-08T15:21:57.186Z,0.50
2023-03-08T15:23:01.497Z,0.00
2023-03-08T15:24:05.898Z,0.00
2023-03-08T15:25:10.401Z,0.25
2023-03-08T15:26:14.507Z,0.75
2023-03-08T15:27:19.017Z,1.25
2023-03-08T15:28:23.073Z,0.50
2023-03-08T15:29:27.640Z,0.75
2023-03-08T15:30:31.949Z,1.00
2023-03-08T15:31:36.096Z,1.00
2023-03-08T15:32:40.265Z,0.50
2023-03-08T15:33:44.257Z,0.75
2023-03-08T15:34:48.679Z,1.00